sensor_id;sensor_type;location;lat;lon;timestamp;pressure;altitude;pressure_sealevel;temperature;humidity
72950;BME280;64868;45.710;9.590;2023-05-02T00:00:22;98812.97;;;12.07;86.47
72950;BME280;64868;45.710;9.590;2023-05-02T00:02:53;98835.69;;;12.19;86.44
72950;BME280;64868;45.710;9.590;2023-05-02T00:05:26;98816.94;;;12.03;86.56
72950;BME280;64868;45.710;9.590;2023-05-02T00:07:59;98818.81;;;12.03;86.59
72950;BME280;64868;45.710;9.590;2023-05-02T00:10:29;98816.56;;;11.97;86.77
72950;BME280;64868;45.710;9.590;2023-05-02T00:13:01;98830.00;;;12.00;87.37
72950;BME280;64868;45.710;9.590;2023-05-02T00:15:34;98836.44;;;12.10;87.28
72950;BME280;64868;45.710;9.590;2023-05-02T00:18:04;98768.66;;;11.70;87.16
72950;BME280;64868;45.710;9.590;2023-05-02T00:20:38;98816.84;;;11.93;87.13
72950;BME280;64868;45.710;9.590;2023-05-02T00:23:08;98823.41;;;12.02;87.11
72950;BME280;64868;45.710;9.590;2023-05-02T00:25:43;98794.88;;;11.95;86.66
72950;BME280;64868;45.710;9.590;2023-05-02T00:28:15;98823.41;;;12.13;87.45
72950;BME280;64868;45.710;9.590;2023-05-02T00:30:46;98818.66;;;12.15;87.93
72950;BME280;64868;45.710;9.590;2023-05-02T00:33:16;98793.72;;;12.09;87.13
72950;BME280;64868;45.710;9.590;2023-05-02T00:35:48;98807.47;;;12.18;86.30
72950;BME280;64868;45.710;9.590;2023-05-02T00:38:19;98793.44;;;12.12;86.80
72950;BME280;64868;45.710;9.590;2023-05-02T00:40:50;98798.03;;;12.23;86.54
72950;BME280;64868;45.710;9.590;2023-05-02T00:43:22;98784.38;;;12.11;86.47
72950;BME280;64868;45.710;9.590;2023-05-02T00:45:52;98775.47;;;12.09;86.33
72950;BME280;64868;45.710;9.590;2023-05-02T00:48:22;98763.81;;;11.96;87.36
72950;BME280;64868;45.710;9.590;2023-05-02T00:50:56;98760.47;;;11.92;87.23
72950;BME280;64868;45.710;9.590;2023-05-02T00:53:29;98755.75;;;11.95;87.02
72950;BME280;64868;45.710;9.590;2023-05-02T00:56:00;98755.84;;;12.04;87.18
72950;BME280;64868;45.710;9.590;2023-05-02T00:58:30;98750.97;;;12.08;87.67
72950;BME280;64868;45.710;9.590;2023-05-02T01:04:14;98770.22;;;12.17;86.82
72950;BME280;64868;45.710;9.590;2023-05-02T01:06:47;98763.03;;;12.16;87.49
72950;BME280;64868;45.710;9.590;2023-05-02T01:12:53;98768.09;;;12.21;86.88
72950;BME280;64868;45.710;9.590;2023-05-02T01:15:29;98753.34;;;12.12;87.46
72950;BME280;64868;45.710;9.590;2023-05-02T01:18:03;98768.47;;;12.28;87.18
72950;BME280;64868;45.710;9.590;2023-05-02T01:20:37;98759.16;;;12.19;87.39
72950;BME280;64868;45.710;9.590;2023-05-02T01:23:13;98763.09;;;12.26;86.79
72950;BME280;64868;45.710;9.590;2023-05-02T01:31:39;98763.38;;;12.12;85.80
72950;BME280;64868;45.710;9.590;2023-05-02T01:34:13;98755.81;;;12.15;86.59
72950;BME280;64868;45.710;9.590;2023-05-02T01:36:48;98749.63;;;12.13;86.92
72950;BME280;64868;45.710;9.590;2023-05-02T01:39:24;98746.63;;;12.16;86.36
72950;BME280;64868;45.710;9.590;2023-05-02T01:41:55;98749.38;;;12.16;86.87
72950;BME280;64868;45.710;9.590;2023-05-02T01:44:26;98724.66;;;12.07;86.11
72950;BME280;64868;45.710;9.590;2023-05-02T01:46:59;98721.69;;;12.10;86.67
72950;BME280;64868;45.710;9.590;2023-05-02T01:49:28;98697.28;;;11.86;86.05
72950;BME280;64868;45.710;9.590;2023-05-02T01:52:03;98743.66;;;12.08;86.82
72950;BME280;64868;45.710;9.590;2023-05-02T01:54:37;98731.63;;;12.00;86.80
72950;BME280;64868;45.710;9.590;2023-05-02T01:57:11;98735.22;;;12.00;86.38
72950;BME280;64868;45.710;9.590;2023-05-02T01:59:44;98737.84;;;12.02;87.50
72950;BME280;64868;45.710;9.590;2023-05-02T02:02:18;98701.22;;;11.82;86.91
72950;BME280;64868;45.710;9.590;2023-05-02T02:04:53;98716.97;;;12.01;86.72
72950;BME280;64868;45.710;9.590;2023-05-02T02:07:26;98694.66;;;11.84;86.68
72950;BME280;64868;45.710;9.590;2023-05-02T02:09:59;98733.84;;;12.17;86.89
72950;BME280;64868;45.710;9.590;2023-05-02T02:12:39;98725.28;;;12.10;86.28
72950;BME280;64868;45.710;9.590;2023-05-02T02:15:16;98716.25;;;11.99;86.73
72950;BME280;64868;45.710;9.590;2023-05-02T02:17:50;98705.56;;;11.96;86.19
72950;BME280;64868;45.710;9.590;2023-05-02T02:20:24;98722.06;;;12.05;86.65
72950;BME280;64868;45.710;9.590;2023-05-02T02:22:59;98722.78;;;12.07;87.18
72950;BME280;64868;45.710;9.590;2023-05-02T02:25:32;98687.47;;;11.83;87.26
72950;BME280;64868;45.710;9.590;2023-05-02T02:28:03;98727.53;;;12.05;87.57
72950;BME280;64868;45.710;9.590;2023-05-02T02:30:35;98717.22;;;12.09;87.69
72950;BME280;64868;45.710;9.590;2023-05-02T02:33:05;98709.28;;;12.06;86.61
72950;BME280;64868;45.710;9.590;2023-05-02T02:35:39;98716.06;;;12.11;86.15
72950;BME280;64868;45.710;9.590;2023-05-02T02:38:35;98718.56;;;12.14;87.13
72950;BME280;64868;45.710;9.590;2023-05-02T02:41:17;98699.00;;;11.98;87.74
72950;BME280;64868;45.710;9.590;2023-05-02T02:44:09;98701.31;;;12.03;87.00
72950;BME280;64868;45.710;9.590;2023-05-02T02:46:50;98714.56;;;12.18;87.36
72950;BME280;64868;45.710;9.590;2023-05-02T02:55:29;98714.44;;;12.20;85.48
72950;BME280;64868;45.710;9.590;2023-05-02T02:58:03;98697.47;;;12.05;86.16
72950;BME280;64868;45.710;9.590;2023-05-02T03:00:34;98715.31;;;12.21;87.96
72950;BME280;64868;45.710;9.590;2023-05-02T03:03:06;98709.97;;;12.19;86.48
72950;BME280;64868;45.710;9.590;2023-05-02T03:05:39;98717.19;;;12.20;86.91
72950;BME280;64868;45.710;9.590;2023-05-02T03:08:09;98698.44;;;12.04;86.83
72950;BME280;64868;45.710;9.590;2023-05-02T03:10:40;98711.75;;;12.09;86.32
72950;BME280;64868;45.710;9.590;2023-05-02T03:13:12;98721.75;;;12.20;86.58
72950;BME280;64868;45.710;9.590;2023-05-02T03:16:00;98722.38;;;12.23;86.86
72950;BME280;64868;45.710;9.590;2023-05-02T03:18:39;98696.88;;;12.02;86.69
72950;BME280;64868;45.710;9.590;2023-05-02T03:21:11;98699.00;;;11.98;87.13
72950;BME280;64868;45.710;9.590;2023-05-02T03:23:44;98715.00;;;12.03;87.69
72950;BME280;64868;45.710;9.590;2023-05-02T03:26:18;98708.88;;;12.10;87.98
72950;BME280;64868;45.710;9.590;2023-05-02T03:28:48;98710.38;;;12.03;87.96
72950;BME280;64868;45.710;9.590;2023-05-02T03:31:18;98700.31;;;12.04;87.12
72950;BME280;64868;45.710;9.590;2023-05-02T03:33:51;98671.56;;;11.77;87.34
72950;BME280;64868;45.710;9.590;2023-05-02T03:36:23;98686.84;;;11.91;87.84
72950;BME280;64868;45.710;9.590;2023-05-02T03:38:53;98689.31;;;11.94;87.15
72950;BME280;64868;45.710;9.590;2023-05-02T03:41:24;98713.88;;;12.05;87.96
72950;BME280;64868;45.710;9.590;2023-05-02T03:43:56;98707.91;;;12.00;87.60
72950;BME280;64868;45.710;9.590;2023-05-02T03:46:29;98686.22;;;11.87;87.20
72950;BME280;64868;45.710;9.590;2023-05-02T03:49:02;98707.94;;;11.89;88.37
72950;BME280;64868;45.710;9.590;2023-05-02T03:51:32;98711.19;;;11.94;87.51
72950;BME280;64868;45.710;9.590;2023-05-02T03:54:04;98713.38;;;12.00;89.24
72950;BME280;64868;45.710;9.590;2023-05-02T03:56:37;98722.44;;;12.01;87.27
72950;BME280;64868;45.710;9.590;2023-05-02T03:59:09;98709.91;;;11.98;87.55
72950;BME280;64868;45.710;9.590;2023-05-02T04:01:42;98707.91;;;12.00;88.19
72950;BME280;64868;45.710;9.590;2023-05-02T04:04:15;98720.97;;;11.97;87.83
72950;BME280;64868;45.710;9.590;2023-05-02T04:06:45;98711.03;;;11.96;88.34
72950;BME280;64868;45.710;9.590;2023-05-02T04:09:15;98722.94;;;12.06;87.42
72950;BME280;64868;45.710;9.590;2023-05-02T04:11:48;98721.53;;;12.11;86.86
72950;BME280;64868;45.710;9.590;2023-05-02T04:14:20;98728.22;;;12.18;86.72
72950;BME280;64868;45.710;9.590;2023-05-02T04:16:54;98733.94;;;12.15;87.60
72950;BME280;64868;45.710;9.590;2023-05-02T04:19:24;98732.47;;;12.11;87.67
72950;BME280;64868;45.710;9.590;2023-05-02T04:21:57;98699.50;;;11.92;87.34
72950;BME280;64868;45.710;9.590;2023-05-02T04:24:27;98744.16;;;12.13;88.01
72950;BME280;64868;45.710;9.590;2023-05-02T04:26:59;98720.72;;;12.00;88.40
72950;BME280;64868;45.710;9.590;2023-05-02T04:29:30;98727.66;;;12.04;87.84
72950;BME280;64868;45.710;9.590;2023-05-02T04:32:02;98697.16;;;11.87;87.59
72950;BME280;64868;45.710;9.590;2023-05-02T04:34:30;98741.28;;;12.15;87.77
72950;BME280;64868;45.710;9.590;2023-05-02T04:37:02;98732.00;;;12.06;87.97
72950;BME280;64868;45.710;9.590;2023-05-02T04:39:35;98748.13;;;12.21;88.19
72950;BME280;64868;45.710;9.590;2023-05-02T04:42:05;98697.91;;;11.89;87.81
72950;BME280;64868;45.710;9.590;2023-05-02T04:44:35;98746.75;;;12.15;86.54
72950;BME280;64868;45.710;9.590;2023-05-02T04:47:01;98744.16;;;12.13;87.15
72950;BME280;64868;45.710;9.590;2023-05-02T04:49:33;98760.16;;;12.18;87.77
72950;BME280;64868;45.710;9.590;2023-05-02T04:52:06;98757.03;;;12.23;88.53
72950;BME280;64868;45.710;9.590;2023-05-02T04:54:39;98741.88;;;12.18;88.22
72950;BME280;64868;45.710;9.590;2023-05-02T04:57:11;98756.28;;;12.32;86.23
72950;BME280;64868;45.710;9.590;2023-05-02T04:59:41;98749.09;;;12.20;87.42
72950;BME280;64868;45.710;9.590;2023-05-02T05:02:14;98757.25;;;12.31;87.35
72950;BME280;64868;45.710;9.590;2023-05-02T05:04:42;98738.25;;;12.29;85.35
72950;BME280;64868;45.710;9.590;2023-05-02T05:07:14;98762.81;;;12.40;86.40
72950;BME280;64868;45.710;9.590;2023-05-02T05:09:47;98738.91;;;12.22;86.30
72950;BME280;64868;45.710;9.590;2023-05-02T05:12:17;98772.63;;;12.43;85.68
72950;BME280;64868;45.710;9.590;2023-05-02T05:14:50;98740.84;;;12.31;84.88
72950;BME280;64868;45.710;9.590;2023-05-02T05:17:20;98765.88;;;12.58;84.74
72950;BME280;64868;45.710;9.590;2023-05-02T05:19:50;98770.47;;;12.58;84.83
72950;BME280;64868;45.710;9.590;2023-05-02T05:22:23;98746.22;;;12.53;85.25
72950;BME280;64868;45.710;9.590;2023-05-02T05:24:56;98755.53;;;12.62;84.41
72950;BME280;64868;45.710;9.590;2023-05-02T05:27:26;98767.53;;;12.71;84.33
72950;BME280;64868;45.710;9.590;2023-05-02T05:29:57;98736.44;;;12.51;83.04
72950;BME280;64868;45.710;9.590;2023-05-02T05:32:29;98783.44;;;12.77;84.30
72950;BME280;64868;45.710;9.590;2023-05-02T05:35:02;98785.72;;;12.93;83.68
72950;BME280;64868;45.710;9.590;2023-05-02T05:37:35;98773.63;;;12.95;82.35
72950;BME280;64868;45.710;9.590;2023-05-02T05:40:10;98788.19;;;13.17;82.86
72950;BME280;64868;45.710;9.590;2023-05-02T05:42:42;98764.38;;;13.07;82.68
72950;BME280;64868;45.710;9.590;2023-05-02T05:45:15;98785.59;;;13.36;82.56
72950;BME280;64868;45.710;9.590;2023-05-02T05:47:45;98761.41;;;13.20;81.70
72950;BME280;64868;45.710;9.590;2023-05-02T05:50:18;98782.25;;;13.32;82.11
72950;BME280;64868;45.710;9.590;2023-05-02T05:52:51;98773.59;;;13.27;81.56
72950;BME280;64868;45.710;9.590;2023-05-02T05:55:23;98760.16;;;13.24;80.74
72950;BME280;64868;45.710;9.590;2023-05-02T05:57:58;98766.75;;;13.43;81.12
72950;BME280;64868;45.710;9.590;2023-05-02T06:00:29;98792.16;;;13.75;80.94
72950;BME280;64868;45.710;9.590;2023-05-02T06:03:01;98785.56;;;13.87;80.06
72950;BME280;64868;45.710;9.590;2023-05-02T06:05:31;98787.06;;;14.11;79.82
72950;BME280;64868;45.710;9.590;2023-05-02T06:07:59;98786.31;;;14.09;79.02
72950;BME280;64868;45.710;9.590;2023-05-02T06:10:32;98790.00;;;14.29;78.28
72950;BME280;64868;45.710;9.590;2023-05-02T06:13:02;98770.59;;;14.51;77.22
72950;BME280;64868;45.710;9.590;2023-05-02T06:15:32;98786.47;;;14.77;74.96
72950;BME280;64868;45.710;9.590;2023-05-02T06:18:01;98778.81;;;14.80;76.23
72950;BME280;64868;45.710;9.590;2023-05-02T06:20:31;98792.22;;;15.13;75.35
72950;BME280;64868;45.710;9.590;2023-05-02T06:23:01;98775.47;;;15.16;74.89
72950;BME280;64868;45.710;9.590;2023-05-02T06:25:29;98763.91;;;15.12;74.70
72950;BME280;64868;45.710;9.590;2023-05-02T06:27:59;98777.13;;;15.46;74.65
72950;BME280;64868;45.710;9.590;2023-05-02T06:30:32;98784.31;;;15.66;72.93
72950;BME280;64868;45.710;9.590;2023-05-02T06:33:04;98790.31;;;15.89;73.18
72950;BME280;64868;45.710;9.590;2023-05-02T06:35:33;98774.88;;;15.78;71.93
72950;BME280;64868;45.710;9.590;2023-05-02T06:38:03;98789.81;;;15.76;71.45
72950;BME280;64868;45.710;9.590;2023-05-02T06:40:33;98779.81;;;15.75;71.54
72950;BME280;64868;45.710;9.590;2023-05-02T06:43:06;98774.06;;;15.58;73.29
72950;BME280;64868;45.710;9.590;2023-05-02T06:45:36;98789.66;;;15.68;73.03
72950;BME280;64868;45.710;9.590;2023-05-02T06:48:06;98797.81;;;15.97;71.84
72950;BME280;64868;45.710;9.590;2023-05-02T06:50:39;98798.84;;;15.86;72.12
72950;BME280;64868;45.710;9.590;2023-05-02T06:53:12;98780.94;;;15.82;71.53
72950;BME280;64868;45.710;9.590;2023-05-02T06:55:44;98797.41;;;15.92;72.97
72950;BME280;64868;45.710;9.590;2023-05-02T06:58:14;98795.25;;;16.13;71.77
72950;BME280;64868;45.710;9.590;2023-05-02T07:00:45;98812.75;;;16.22;70.13
72950;BME280;64868;45.710;9.590;2023-05-02T07:03:14;98805.81;;;16.18;69.71
72950;BME280;64868;45.710;9.590;2023-05-02T07:05:47;98798.22;;;16.29;69.07
72950;BME280;64868;45.710;9.590;2023-05-02T07:08:20;98802.22;;;16.35;69.11
72950;BME280;64868;45.710;9.590;2023-05-02T07:10:50;98802.47;;;16.42;71.32
72950;BME280;64868;45.710;9.590;2023-05-02T07:13:23;98813.97;;;16.55;71.02
72950;BME280;64868;45.710;9.590;2023-05-02T07:15:55;98824.13;;;16.82;69.54
72950;BME280;64868;45.710;9.590;2023-05-02T07:18:28;98805.66;;;16.65;67.81
72950;BME280;64868;45.710;9.590;2023-05-02T07:21:01;98819.59;;;16.63;69.77
72950;BME280;64868;45.710;9.590;2023-05-02T07:23:33;98816.41;;;16.40;69.35
72950;BME280;64868;45.710;9.590;2023-05-02T07:26:06;98810.19;;;16.38;69.78
72950;BME280;64868;45.710;9.590;2023-05-02T07:28:36;98811.09;;;16.57;69.39
72950;BME280;64868;45.710;9.590;2023-05-02T07:31:09;98820.75;;;16.61;69.45
72950;BME280;64868;45.710;9.590;2023-05-02T07:33:41;98827.31;;;16.77;68.07
72950;BME280;64868;45.710;9.590;2023-05-02T07:36:14;98834.91;;;16.93;67.82
72950;BME280;64868;45.710;9.590;2023-05-02T07:38:44;98834.63;;;17.05;68.35
72950;BME280;64868;45.710;9.590;2023-05-02T07:41:14;98812.16;;;17.09;66.86
72950;BME280;64868;45.710;9.590;2023-05-02T07:43:47;98824.53;;;17.49;65.84
72950;BME280;64868;45.710;9.590;2023-05-02T07:46:17;98841.97;;;18.02;63.71
72950;BME280;64868;45.710;9.590;2023-05-02T07:48:50;98818.13;;;18.27;63.69
72950;BME280;64868;45.710;9.590;2023-05-02T07:51:22;98833.88;;;18.42;61.99
72950;BME280;64868;45.710;9.590;2023-05-02T07:53:55;98851.50;;;19.00;60.81
72950;BME280;64868;45.710;9.590;2023-05-02T07:56:30;98844.09;;;19.01;59.73
72950;BME280;64868;45.710;9.590;2023-05-02T07:59:03;98840.31;;;19.34;58.55
72950;BME280;64868;45.710;9.590;2023-05-02T08:01:36;98835.31;;;19.13;57.76
72950;BME280;64868;45.710;9.590;2023-05-02T08:04:06;98846.84;;;19.09;58.42
72950;BME280;64868;45.710;9.590;2023-05-02T08:06:37;98854.28;;;19.16;58.76
72950;BME280;64868;45.710;9.590;2023-05-02T08:09:06;98845.00;;;19.26;57.12
72950;BME280;64868;45.710;9.590;2023-05-02T08:11:37;98843.94;;;19.35;57.21
72950;BME280;64868;45.710;9.590;2023-05-02T08:14:05;98843.28;;;19.82;56.50
72950;BME280;64868;45.710;9.590;2023-05-02T08:16:35;98846.72;;;19.76;53.32
72950;BME280;64868;45.710;9.590;2023-05-02T08:19:08;98849.25;;;20.65;51.97
72950;BME280;64868;45.710;9.590;2023-05-02T08:21:41;98835.56;;;23.70;46.42
72950;BME280;64868;45.710;9.590;2023-05-02T08:24:13;98833.16;;;24.99;42.53
72950;BME280;64868;45.710;9.590;2023-05-02T08:26:43;98845.22;;;24.58;42.68
72950;BME280;64868;45.710;9.590;2023-05-02T08:29:13;98847.06;;;24.92;40.89
72950;BME280;64868;45.710;9.590;2023-05-02T08:31:43;98845.16;;;23.89;42.91
72950;BME280;64868;45.710;9.590;2023-05-02T08:34:13;98834.94;;;23.96;42.86
72950;BME280;64868;45.710;9.590;2023-05-02T08:36:43;98867.03;;;24.20;41.83
72950;BME280;64868;45.710;9.590;2023-05-02T08:39:14;98866.59;;;24.44;41.45
72950;BME280;64868;45.710;9.590;2023-05-02T08:41:46;98859.94;;;24.17;41.32
72950;BME280;64868;45.710;9.590;2023-05-02T08:44:19;98871.13;;;23.96;42.44
72950;BME280;64868;45.710;9.590;2023-05-02T08:46:51;98884.38;;;23.94;42.24
72950;BME280;64868;45.710;9.590;2023-05-02T08:49:23;98891.16;;;23.85;41.37
72950;BME280;64868;45.710;9.590;2023-05-02T08:51:57;98880.53;;;23.30;43.52
72950;BME280;64868;45.710;9.590;2023-05-02T08:54:28;98885.00;;;21.46;48.72
72950;BME280;64868;45.710;9.590;2023-05-02T08:56:57;98901.72;;;21.60;47.92
72950;BME280;64868;45.710;9.590;2023-05-02T08:59:27;98899.88;;;21.53;48.14
72950;BME280;64868;45.710;9.590;2023-05-02T09:02:04;98878.28;;;21.63;48.55
72950;BME280;64868;45.710;9.590;2023-05-02T09:04:40;98898.84;;;22.89;44.40
72950;BME280;64868;45.710;9.590;2023-05-02T09:07:12;98885.06;;;22.66;45.46
72950;BME280;64868;45.710;9.590;2023-05-02T09:09:45;98902.00;;;22.26;47.56
72950;BME280;64868;45.710;9.590;2023-05-02T09:12:17;98893.56;;;22.34;47.88
72950;BME280;64868;45.710;9.590;2023-05-02T09:15:13;98869.88;;;22.09;47.00
72950;BME280;64868;45.710;9.590;2023-05-02T09:17:49;98898.06;;;21.83;47.30
72950;BME280;64868;45.710;9.590;2023-05-02T09:20:21;98900.47;;;21.40;47.00
72950;BME280;64868;45.710;9.590;2023-05-02T09:22:54;98902.81;;;21.20;45.71
72950;BME280;64868;45.710;9.590;2023-05-02T09:25:24;98896.53;;;20.00;47.79
72950;BME280;64868;45.710;9.590;2023-05-02T09:27:57;98883.72;;;21.33;46.33
72950;BME280;64868;45.710;9.590;2023-05-02T09:30:30;98894.25;;;22.37;45.02
72950;BME280;64868;45.710;9.590;2023-05-02T09:33:00;98900.31;;;23.21;44.01
72950;BME280;64868;45.710;9.590;2023-05-02T09:35:32;98911.28;;;23.22;44.31
72950;BME280;64868;45.710;9.590;2023-05-02T09:38:05;98907.44;;;23.45;43.07
72950;BME280;64868;45.710;9.590;2023-05-02T09:40:57;98883.50;;;24.43;40.52
72950;BME280;64868;45.710;9.590;2023-05-02T09:43:27;98900.03;;;24.79;38.56
72950;BME280;64868;45.710;9.590;2023-05-02T09:46:13;98870.41;;;24.15;38.08
72950;BME280;64868;45.710;9.590;2023-05-02T09:48:52;98902.59;;;24.46;38.00
72950;BME280;64868;45.710;9.590;2023-05-02T09:51:24;98907.28;;;23.31;39.14
72950;BME280;64868;45.710;9.590;2023-05-02T09:53:57;98897.78;;;22.30;41.05
72950;BME280;64868;45.710;9.590;2023-05-02T09:56:30;98885.56;;;22.02;39.16
72950;BME280;64868;45.710;9.590;2023-05-02T09:59:14;98895.91;;;20.85;39.81
72950;BME280;64868;45.710;9.590;2023-05-02T10:01:44;98894.72;;;20.87;41.67
72950;BME280;64868;45.710;9.590;2023-05-02T10:04:17;98889.97;;;20.57;41.07
72950;BME280;64868;45.710;9.590;2023-05-02T10:06:52;98877.38;;;20.38;42.22
72950;BME280;64868;45.710;9.590;2023-05-02T10:09:23;98897.78;;;20.45;41.86
72950;BME280;64868;45.710;9.590;2023-05-02T10:11:57;98884.47;;;20.40;43.53
72950;BME280;64868;45.710;9.590;2023-05-02T10:14:36;98885.91;;;20.20;44.13
72950;BME280;64868;45.710;9.590;2023-05-02T10:22:32;98898.44;;;19.75;46.95
72950;BME280;64868;45.710;9.590;2023-05-02T10:25:03;98895.78;;;19.33;48.50
72950;BME280;64868;45.710;9.590;2023-05-02T10:27:34;98898.44;;;19.75;47.74
72950;BME280;64868;45.710;9.590;2023-05-02T10:30:05;98897.41;;;19.68;45.46
72950;BME280;64868;45.710;9.590;2023-05-02T10:32:39;98896.19;;;19.71;44.70
72950;BME280;64868;45.710;9.590;2023-05-02T10:35:07;98892.38;;;19.72;46.05
72950;BME280;64868;45.710;9.590;2023-05-02T10:37:37;98907.31;;;20.42;46.38
72950;BME280;64868;45.710;9.590;2023-05-02T10:40:14;98891.09;;;20.23;45.42
72950;BME280;64868;45.710;9.590;2023-05-02T10:42:47;98888.88;;;20.74;45.24
72950;BME280;64868;45.710;9.590;2023-05-02T10:45:36;98891.66;;;21.28;43.57
72950;BME280;64868;45.710;9.590;2023-05-02T10:48:19;98898.16;;;20.89;43.75
72950;BME280;64868;45.710;9.590;2023-05-02T10:50:57;98897.53;;;20.71;43.67
72950;BME280;64868;45.710;9.590;2023-05-02T10:53:37;98898.78;;;21.00;43.01
72950;BME280;64868;45.710;9.590;2023-05-02T10:56:15;98894.25;;;21.07;42.82
72950;BME280;64868;45.710;9.590;2023-05-02T10:58:45;98891.38;;;21.23;43.08
72950;BME280;64868;45.710;9.590;2023-05-02T11:01:33;98901.44;;;21.70;42.90
72950;BME280;64868;45.710;9.590;2023-05-02T11:04:12;98899.22;;;21.66;41.88
72950;BME280;64868;45.710;9.590;2023-05-02T11:09:32;98873.53;;;21.49;40.08
72950;BME280;64868;45.710;9.590;2023-05-02T11:12:05;98879.66;;;21.82;40.52
72950;BME280;64868;45.710;9.590;2023-05-02T11:14:41;98888.41;;;22.08;39.82
72950;BME280;64868;45.710;9.590;2023-05-02T11:17:10;98871.34;;;22.64;38.99
72950;BME280;64868;45.710;9.590;2023-05-02T11:22:33;98877.78;;;23.73;36.85
72950;BME280;64868;45.710;9.590;2023-05-02T11:25:01;98870.56;;;24.35;35.24
72950;BME280;64868;45.710;9.590;2023-05-02T11:27:36;98889.75;;;24.45;35.63
72950;BME280;64868;45.710;9.590;2023-05-02T11:30:12;98879.66;;;24.44;35.02
72950;BME280;64868;45.710;9.590;2023-05-02T11:35:27;98864.84;;;24.85;33.78
72950;BME280;64868;45.710;9.590;2023-05-02T11:38:11;98875.47;;;24.05;34.76
72950;BME280;64868;45.710;9.590;2023-05-02T11:40:46;98868.94;;;24.41;35.33
72950;BME280;64868;45.710;9.590;2023-05-02T11:43:17;98880.44;;;24.38;34.53
72950;BME280;64868;45.710;9.590;2023-05-02T11:45:48;98866.72;;;24.36;33.44
72950;BME280;64868;45.710;9.590;2023-05-02T11:48:21;98859.59;;;24.55;33.64
72950;BME280;64868;45.710;9.590;2023-05-02T11:50:50;98866.38;;;24.87;33.42
72950;BME280;64868;45.710;9.590;2023-05-02T11:53:24;98867.50;;;24.93;32.80
72950;BME280;64868;45.710;9.590;2023-05-02T11:55:58;98873.09;;;24.58;35.10
72950;BME280;64868;45.710;9.590;2023-05-02T11:58:28;98877.78;;;23.73;36.47
72950;BME280;64868;45.710;9.590;2023-05-02T12:01:09;98875.22;;;23.36;35.88
72950;BME280;64868;45.710;9.590;2023-05-02T12:03:40;98879.22;;;23.48;36.35
72950;BME280;64868;45.710;9.590;2023-05-02T12:06:16;98868.19;;;23.18;37.98
72950;BME280;64868;45.710;9.590;2023-05-02T12:08:50;98867.06;;;23.13;36.14
72950;BME280;64868;45.710;9.590;2023-05-02T12:11:24;98859.56;;;23.49;35.90
72950;BME280;64868;45.710;9.590;2023-05-02T12:13:56;98873.59;;;23.84;33.87
72950;BME280;64868;45.710;9.590;2023-05-02T12:16:24;98876.34;;;24.34;33.85
72950;BME280;64868;45.710;9.590;2023-05-02T12:18:57;98864.13;;;23.78;35.61
72950;BME280;64868;45.710;9.590;2023-05-02T12:21:28;98876.94;;;24.01;36.38
72950;BME280;64868;45.710;9.590;2023-05-02T12:24:04;98862.88;;;22.87;37.62
72950;BME280;64868;45.710;9.590;2023-05-02T12:26:35;98879.59;;;23.45;37.16
72950;BME280;64868;45.710;9.590;2023-05-02T12:29:05;98866.47;;;23.17;37.64
72950;BME280;64868;45.710;9.590;2023-05-02T12:31:37;98877.59;;;23.17;38.27
72950;BME280;64868;45.710;9.590;2023-05-02T12:34:07;98870.34;;;23.59;37.88
72950;BME280;64868;45.710;9.590;2023-05-02T12:36:42;98869.34;;;23.24;37.61
72950;BME280;64868;45.710;9.590;2023-05-02T12:39:10;98878.59;;;22.80;38.95
72950;BME280;64868;45.710;9.590;2023-05-02T12:41:41;98867.00;;;22.76;38.57
72950;BME280;64868;45.710;9.590;2023-05-02T12:44:14;98883.31;;;22.50;38.61
72950;BME280;64868;45.710;9.590;2023-05-02T12:47:00;98874.78;;;22.96;38.43
72950;BME280;64868;45.710;9.590;2023-05-02T12:49:28;98875.09;;;22.42;38.07
72950;BME280;64868;45.710;9.590;2023-05-02T12:52:00;98884.59;;;21.95;39.29
72950;BME280;64868;45.710;9.590;2023-05-02T12:54:30;98876.16;;;22.41;38.70
72950;BME280;64868;45.710;9.590;2023-05-02T12:57:00;98875.56;;;22.30;38.25
72950;BME280;64868;45.710;9.590;2023-05-02T12:59:36;98839.81;;;22.57;37.03
72950;BME280;64868;45.710;9.590;2023-05-02T13:02:09;98874.59;;;22.23;37.95
72950;BME280;64868;45.710;9.590;2023-05-02T13:04:40;98866.38;;;22.45;37.31
72950;BME280;64868;45.710;9.590;2023-05-02T13:07:08;98871.09;;;23.10;36.51
72950;BME280;64868;45.710;9.590;2023-05-02T13:09:38;98854.84;;;22.77;36.99
72950;BME280;64868;45.710;9.590;2023-05-02T13:12:10;98873.25;;;22.64;37.59
72950;BME280;64868;45.710;9.590;2023-05-02T13:14:41;98866.16;;;22.46;39.21
72950;BME280;64868;45.710;9.590;2023-05-02T13:17:11;98865.78;;;22.64;38.69
72950;BME280;64868;45.710;9.590;2023-05-02T13:19:43;98864.03;;;22.78;40.21
72950;BME280;64868;45.710;9.590;2023-05-02T13:22:11;98856.19;;;22.67;41.19
72950;BME280;64868;45.710;9.590;2023-05-02T13:24:41;98874.84;;;22.88;41.41
72950;BME280;64868;45.710;9.590;2023-05-02T13:27:11;98863.88;;;24.01;39.23
72950;BME280;64868;45.710;9.590;2023-05-02T13:29:41;98874.59;;;24.61;38.38
72950;BME280;64868;45.710;9.590;2023-05-02T13:32:12;98875.22;;;23.72;38.88
72950;BME280;64868;45.710;9.590;2023-05-02T13:34:44;98874.56;;;22.82;40.70
72950;BME280;64868;45.710;9.590;2023-05-02T13:37:15;98847.78;;;22.60;40.51
72950;BME280;64868;45.710;9.590;2023-05-02T13:39:42;98863.84;;;23.52;40.00
72950;BME280;64868;45.710;9.590;2023-05-02T13:42:12;98868.28;;;23.89;39.25
72950;BME280;64868;45.710;9.590;2023-05-02T13:44:43;98867.75;;;24.28;38.97
72950;BME280;64868;45.710;9.590;2023-05-02T13:47:15;98885.72;;;24.26;37.40
72950;BME280;64868;45.710;9.590;2023-05-02T13:49:43;98833.78;;;23.90;37.90
72950;BME280;64868;45.710;9.590;2023-05-02T13:52:13;98875.41;;;24.48;37.97
72950;BME280;64868;45.710;9.590;2023-05-02T13:54:45;98847.28;;;24.43;37.47
72950;BME280;64868;45.710;9.590;2023-05-02T13:57:18;98877.41;;;24.04;38.31
72950;BME280;64868;45.710;9.590;2023-05-02T13:59:48;98879.47;;;23.31;38.73